createdAt,value
2023-04-30T00:07:46.804Z,6.90
2023-04-30T00:17:51.276Z,6.74
2023-04-30T00:27:54.261Z,6.66
2023-04-30T00:37:58.278Z,6.46
2023-04-30T00:48:01.272Z,6.23
2023-04-30T00:58:06.510Z,6.06
2023-04-30T01:08:09.888Z,6.10
2023-04-30T01:18:19.748Z,6.07
2023-04-30T01:28:25.568Z,6.02
2023-04-30T01:38:43.215Z,5.76
2023-04-30T01:48:54.887Z,5.56
2023-04-30T01:58:58.143Z,5.50
2023-04-30T02:09:05.478Z,5.42
2023-04-30T02:19:08.320Z,5.42
2023-04-30T02:29:12.456Z,5.32
2023-04-30T02:39:15.102Z,5.26
2023-04-30T02:49:19.846Z,5.33
2023-04-30T02:59:22.817Z,5.23
2023-04-30T03:09:27.022Z,5.12
2023-04-30T03:19:29.860Z,5.02
2023-04-30T03:29:33.914Z,4.97
2023-04-30T03:39:36.603Z,4.96
2023-04-30T03:49:40.662Z,4.84
2023-04-30T03:59:43.450Z,4.68
2023-04-30T04:09:48.286Z,4.65
2023-04-30T04:19:50.957Z,4.49
2023-04-30T04:29:55.471Z,4.59
2023-04-30T04:39:58.520Z,4.69
2023-04-30T04:50:03.041Z,4.93
2023-04-30T05:00:08.286Z,5.23
2023-04-30T05:10:14.703Z,5.48
2023-04-30T05:20:20.190Z,5.70
2023-04-30T05:30:24.409Z,6.05
2023-04-30T05:40:27.318Z,6.48
2023-04-30T05:50:31.396Z,6.86
2023-04-30T06:00:34.374Z,7.27
2023-04-30T06:10:38.993Z,7.67
2023-04-30T06:20:41.803Z,8.05
2023-04-30T06:30:46.105Z,8.39
2023-04-30T06:40:49.198Z,8.83
2023-04-30T06:50:53.471Z,9.18
2023-04-30T07:00:56.290Z,9.32
2023-04-30T07:11:00.359Z,9.68
2023-04-30T07:21:03.872Z,10.00
2023-04-30T07:31:08.536Z,10.39
2023-04-30T07:41:11.957Z,10.70
2023-04-30T07:51:16.024Z,10.82
2023-04-30T08:01:18.942Z,10.99
2023-04-30T08:11:23.130Z,11.29
2023-04-30T08:21:28.103Z,11.34
2023-04-30T08:31:32.261Z,11.63
2023-04-30T08:41:37.358Z,11.97
2023-04-30T08:51:42.093Z,11.98
2023-04-30T09:01:44.930Z,12.42
2023-04-30T09:11:48.986Z,12.57
2023-04-30T09:21:51.676Z,12.62
2023-04-30T09:32:09.608Z,12.59
2023-04-30T09:42:12.542Z,13.26
2023-04-30T09:52:17.369Z,13.79
2023-04-30T10:02:20.513Z,13.92
2023-04-30T10:12:28.298Z,14.22
2023-04-30T10:22:31.605Z,14.35
2023-04-30T10:32:44.123Z,15.10
2023-04-30T10:42:47.611Z,14.93
2023-04-30T10:53:03.560Z,15.29
2023-04-30T11:03:06.373Z,15.88
2023-04-30T11:13:10.995Z,16.39
2023-04-30T11:23:19.572Z,17.48
2023-04-30T11:33:27.679Z,27.16
2023-04-30T11:43:31.854Z,30.95
2023-04-30T11:53:36.414Z,33.19
2023-04-30T12:03:43.855Z,33.06
2023-04-30T12:13:53.234Z,33.28
2023-04-30T12:23:55.940Z,34.09
2023-04-30T12:34:04.024Z,32.97
2023-04-30T12:44:17.367Z,33.60
2023-04-30T12:54:28.773Z,31.89
2023-04-30T13:04:31.623Z,32.62
2023-04-30T13:14:36.147Z,32.09
2023-04-30T13:24:38.753Z,30.78
2023-04-30T13:34:42.690Z,28.80
2023-04-30T13:44:47.720Z,28.50
2023-04-30T13:54:53.389Z,26.79
2023-04-30T14:05:05.258Z,26.19
2023-04-30T14:15:10.717Z,24.24
2023-04-30T14:25:13.429Z,25.38
2023-04-30T14:35:17.541Z,25.29
2023-04-30T14:45:20.201Z,24.79
2023-04-30T14:55:24.445Z,24.80
2023-04-30T15:05:27.838Z,24.57
2023-04-30T15:15:32.055Z,23.05
2023-04-30T15:25:35.001Z,23.29
2023-04-30T15:35:38.992Z,23.08
2023-04-30T15:45:42.069Z,21.94
2023-04-30T15:55:46.682Z,21.98
2023-04-30T16:05:49.483Z,21.83
2023-04-30T16:15:53.643Z,21.52
2023-04-30T16:25:56.577Z,21.23
2023-04-30T16:36:02.729Z,21.36
2023-04-30T16:46:05.411Z,20.87
2023-04-30T16:56:09.406Z,19.85
2023-04-30T17:06:14.253Z,19.83
2023-04-30T17:16:18.369Z,19.63
2023-04-30T17:26:21.427Z,19.48
2023-04-30T17:36:25.553Z,18.65
2023-04-30T17:46:28.881Z,18.13
2023-04-30T17:56:33.447Z,17.77
2023-04-30T18:06:36.424Z,17.35
2023-04-30T18:16:41.078Z,16.98
2023-04-30T18:26:43.785Z,16.63
2023-04-30T18:36:47.741Z,16.18
2023-04-30T18:46:50.626Z,15.71
2023-04-30T18:56:54.587Z,15.30
2023-04-30T19:06:57.230Z,14.77
2023-04-30T19:17:01.321Z,14.36
2023-04-30T19:27:04.492Z,14.12
2023-04-30T19:37:08.474Z,13.83
2023-04-30T19:47:11.176Z,13.58
2023-04-30T19:57:15.210Z,13.21
2023-04-30T20:07:18.852Z,13.04
2023-04-30T20:17:23.027Z,12.80
2023-04-30T20:27:25.727Z,12.49
2023-04-30T20:37:29.918Z,12.23
2023-04-30T20:47:32.618Z,11.78
2023-04-30T20:57:37.565Z,11.66
2023-04-30T21:07:40.268Z,11.53
2023-04-30T21:17:44.343Z,11.36
2023-04-30T21:27:46.991Z,11.13
2023-04-30T21:37:50.987Z,10.97
2023-04-30T21:47:53.792Z,10.85
2023-04-30T21:57:57.997Z,10.69
2023-04-30T22:08:00.895Z,10.53
2023-04-30T22:18:05.009Z,10.44
2023-04-30T22:28:07.651Z,10.26
2023-04-30T22:38:12.069Z,10.21
2023-04-30T22:48:15.709Z,10.04
2023-04-30T22:58:19.758Z,9.96
2023-04-30T23:08:22.337Z,9.80
2023-04-30T23:18:26.397Z,9.70
2023-04-30T23:28:28.980Z,9.59
2023-04-30T23:38:32.924Z,9.45
2023-04-30T23:48:35.929Z,9.30
2023-04-30T23:58:39.864Z,9.24
